createdAt,value
2023-01-12T00:01:44.043Z,99790.10
2023-01-12T00:04:15.036Z,99790.61
2023-01-12T00:06:42.466Z,99783.45
2023-01-12T00:09:10.690Z,99781.48
2023-01-12T00:11:39.028Z,99785.54
2023-01-12T00:14:07.888Z,99790.52
2023-01-12T00:16:35.445Z,99791.45
2023-01-12T00:19:09.300Z,99797.64
2023-01-12T00:21:56.627Z,99799.45
2023-01-12T00:24:28.784Z,99800.23
2023-01-12T00:26:57.233Z,99798.73
2023-01-12T00:29:26.168Z,99799.67
2023-01-12T00:31:54.521Z,99801.52
2023-01-12T00:34:22.412Z,99804.20
2023-01-12T00:36:49.750Z,99806.91
2023-01-12T00:39:17.661Z,99805.75
2023-01-12T00:42:04.114Z,99812.66
2023-01-12T00:44:50.106Z,99812.52
2023-01-12T00:47:18.056Z,99814.85
2023-01-12T00:49:45.947Z,99820.25
2023-01-12T00:52:29.839Z,99821.44
2023-01-12T00:54:58.495Z,99819.40
2023-01-12T00:57:25.612Z,99825.94
2023-01-12T00:59:55.661Z,99818.02
2023-01-12T01:02:23.308Z,99818.27
2023-01-12T01:04:50.971Z,99819.66
2023-01-12T01:07:18.728Z,99825.11
2023-01-12T01:09:45.991Z,99828.52
2023-01-12T01:12:13.483Z,99830.61
2023-01-12T01:14:40.619Z,99828.80
2023-01-12T01:17:07.693Z,99831.09
2023-01-12T01:19:35.054Z,99826.08
2023-01-12T01:22:02.249Z,99825.17
2023-01-12T01:24:29.527Z,99828.47
2023-01-12T01:26:56.658Z,99825.22
2023-01-12T01:29:23.803Z,99829.57
2023-01-12T01:31:51.082Z,99833.90
2023-01-12T01:34:18.259Z,99832.00
2023-01-12T01:36:45.417Z,99834.98
2023-01-12T01:39:12.613Z,99835.40
2023-01-12T01:41:42.093Z,99833.48
2023-01-12T01:44:29.566Z,99833.19
2023-01-12T01:47:08.441Z,99833.41
2023-01-12T01:49:46.336Z,99839.59
2023-01-12T01:52:19.493Z,99839.20
2023-01-12T01:54:55.652Z,99837.80
2023-01-12T01:57:26.592Z,99836.79
2023-01-12T01:59:56.425Z,99842.76
2023-01-12T02:02:26.488Z,99841.65
2023-01-12T02:04:56.012Z,99845.88
2023-01-12T02:07:23.769Z,99851.02
2023-01-12T02:09:51.177Z,99856.84
2023-01-12T02:12:37.179Z,99864.21
2023-01-12T02:15:27.665Z,99868.23
2023-01-12T02:18:24.413Z,99870.86
2023-01-12T02:20:58.372Z,99870.70
2023-01-12T02:23:36.195Z,99870.57
2023-01-12T02:26:15.428Z,99870.02
2023-01-12T02:28:58.146Z,99869.37
2023-01-12T02:31:31.275Z,99871.83
2023-01-12T02:34:04.305Z,99868.29
2023-01-12T02:36:53.413Z,99865.96
2023-01-12T02:39:29.839Z,99865.88
2023-01-12T02:42:37.407Z,99872.12
2023-01-12T02:45:50.336Z,99873.30
2023-01-12T02:48:38.316Z,99874.98
2023-01-12T02:51:32.558Z,99872.23
2023-01-12T02:54:04.749Z,99873.91
2023-01-12T02:56:41.122Z,99875.64
2023-01-12T02:59:23.215Z,99881.71
2023-01-12T03:01:52.494Z,99887.59
2023-01-12T03:04:20.743Z,99887.95
2023-01-12T03:06:56.913Z,99889.66
2023-01-12T03:09:31.576Z,99877.24
2023-01-12T03:12:06.237Z,99871.53
2023-01-12T03:14:37.530Z,99867.38
2023-01-12T03:17:22.879Z,99873.02
2023-01-12T03:19:53.005Z,99871.38
2023-01-12T03:22:21.746Z,99873.60
2023-01-12T03:24:58.030Z,99875.94
2023-01-12T03:27:41.412Z,99871.20
2023-01-12T03:30:12.296Z,99861.95
2023-01-12T03:32:39.475Z,99859.09
2023-01-12T03:35:08.911Z,99859.80
2023-01-12T03:37:42.370Z,99861.36
2023-01-12T03:40:27.402Z,99856.49
2023-01-12T03:43:11.771Z,99850.77
2023-01-12T03:45:46.223Z,99855.00
2023-01-12T03:48:26.455Z,99856.55
2023-01-12T03:51:05.564Z,99853.88
2023-01-12T03:53:34.556Z,99856.11
2023-01-12T03:56:06.598Z,99859.51
2023-01-12T03:58:35.548Z,99858.84
2023-01-12T04:01:04.253Z,99865.45
2023-01-12T04:03:31.694Z,99864.54
2023-01-12T04:05:58.947Z,99860.82
2023-01-12T04:08:26.140Z,99858.36
2023-01-12T04:10:53.320Z,99851.91
2023-01-12T04:13:20.439Z,99853.52
2023-01-12T04:15:48.362Z,99857.13
2023-01-12T04:18:15.768Z,99864.15
2023-01-12T04:20:42.897Z,99871.16
2023-01-12T04:23:10.152Z,99872.42
2023-01-12T04:25:37.330Z,99875.80
2023-01-12T04:28:04.815Z,99875.45
2023-01-12T04:30:33.876Z,99870.30
2023-01-12T04:33:08.161Z,99868.90
2023-01-12T04:35:35.535Z,99873.23
2023-01-12T04:38:07.649Z,99873.33
2023-01-12T04:40:35.127Z,99873.63
2023-01-12T04:43:02.480Z,99879.87
2023-01-12T04:45:32.084Z,99874.38
2023-01-12T04:48:04.788Z,99877.02
2023-01-12T04:50:32.308Z,99883.08
2023-01-12T04:53:02.988Z,99886.76
2023-01-12T04:55:30.315Z,99887.52
2023-01-12T04:57:57.589Z,99886.65
2023-01-12T05:00:25.481Z,99888.61
2023-01-12T05:02:59.544Z,99892.46
2023-01-12T05:05:28.121Z,99896.71
2023-01-12T05:08:14.590Z,99894.63
2023-01-12T05:10:41.736Z,99895.91
2023-01-12T05:13:08.912Z,99895.06
2023-01-12T05:15:36.086Z,99895.35
2023-01-12T05:18:03.267Z,99894.80
2023-01-12T05:20:30.466Z,99892.75
2023-01-12T05:22:57.599Z,99893.17
2023-01-12T05:25:26.896Z,99890.70
2023-01-12T05:27:58.016Z,99887.21
2023-01-12T05:30:26.917Z,99882.89
2023-01-12T05:32:54.435Z,99885.17
2023-01-12T05:35:22.185Z,99882.02
2023-01-12T05:37:49.688Z,99881.92
2023-01-12T05:40:17.115Z,99887.58
2023-01-12T05:43:03.161Z,99890.33
2023-01-12T05:45:30.232Z,99893.64
2023-01-12T05:47:59.103Z,99892.70
2023-01-12T05:50:26.336Z,99898.56
2023-01-12T05:53:08.981Z,99901.17
2023-01-12T05:55:38.214Z,99904.08
2023-01-12T05:58:05.757Z,99909.39
2023-01-12T06:00:33.083Z,99905.73
2023-01-12T06:03:02.847Z,99903.48
2023-01-12T06:05:30.026Z,99902.42
2023-01-12T06:07:58.473Z,99904.92
2023-01-12T06:10:25.650Z,99907.08
2023-01-12T06:13:11.492Z,99909.58
2023-01-12T06:15:38.694Z,99914.02
2023-01-12T06:18:06.409Z,99920.68
2023-01-12T06:20:33.545Z,99926.64
2023-01-12T06:23:02.417Z,99933.48
2023-01-12T06:25:30.267Z,99934.10
2023-01-12T06:27:57.772Z,99929.80
2023-01-12T06:30:25.232Z,99928.84
2023-01-12T06:32:52.409Z,99928.89
2023-01-12T06:35:20.045Z,99929.33
2023-01-12T06:37:47.538Z,99933.45
2023-01-12T06:40:15.772Z,99934.38
2023-01-12T06:42:43.217Z,99933.09
2023-01-12T06:45:10.852Z,99934.96
2023-01-12T06:47:45.049Z,99938.19
2023-01-12T06:50:13.308Z,99938.93
2023-01-12T06:52:40.773Z,99936.23
2023-01-12T06:55:08.690Z,99935.05
2023-01-12T06:57:36.091Z,99931.42
2023-01-12T07:00:05.946Z,99931.27
2023-01-12T07:02:33.220Z,99931.70
2023-01-12T07:05:00.321Z,99934.56
2023-01-12T07:07:27.614Z,99933.48
2023-01-12T07:09:55.440Z,99930.89
2023-01-12T07:12:22.816Z,99931.52
2023-01-12T07:14:50.042Z,99931.02
2023-01-12T07:17:18.010Z,99936.66
2023-01-12T07:19:45.174Z,99930.29
2023-01-12T07:22:12.304Z,99933.03
2023-01-12T07:24:39.465Z,99932.73
2023-01-12T07:27:06.692Z,99935.24
2023-01-12T07:29:34.483Z,99935.84
2023-01-12T07:32:02.023Z,99937.14
2023-01-12T07:34:30.052Z,99938.91
2023-01-12T07:36:57.743Z,99940.33
2023-01-12T07:39:24.879Z,99937.69
2023-01-12T07:42:12.277Z,99932.96
2023-01-12T07:44:40.474Z,99934.48
2023-01-12T07:47:07.867Z,99933.67
2023-01-12T07:49:35.062Z,99933.38
2023-01-12T07:52:02.211Z,99939.30
2023-01-12T07:54:29.414Z,99937.10
2023-01-12T07:56:56.920Z,99938.67
2023-01-12T07:59:24.073Z,99938.47
2023-01-12T08:01:53.700Z,99931.20
2023-01-12T08:04:22.357Z,99926.19
2023-01-12T08:06:49.527Z,99928.76
2023-01-12T08:09:16.602Z,99925.62
2023-01-12T08:11:43.715Z,99918.71
2023-01-12T08:14:19.202Z,99921.70
2023-01-12T08:16:49.851Z,99916.96
2023-01-12T08:19:21.652Z,99920.44
2023-01-12T08:21:57.277Z,99922.00
2023-01-12T08:24:26.912Z,99917.03
2023-01-12T08:26:56.680Z,99922.39
2023-01-12T08:29:44.262Z,99926.14
2023-01-12T08:32:13.978Z,99924.98
2023-01-12T08:34:43.961Z,99920.11
2023-01-12T08:37:13.831Z,99914.80
2023-01-12T08:39:41.127Z,99915.89
2023-01-12T08:42:08.863Z,99905.73
2023-01-12T08:44:36.451Z,99903.79
2023-01-12T08:47:06.266Z,99899.91
2023-01-12T08:49:34.274Z,99899.46
2023-01-12T08:52:01.386Z,99907.48
2023-01-12T08:54:28.789Z,99907.52
2023-01-12T08:56:56.046Z,99907.54
2023-01-12T08:59:23.301Z,99899.74
2023-01-12T09:01:50.602Z,99905.72
2023-01-12T09:04:18.111Z,99910.89
2023-01-12T09:06:47.323Z,99910.11
2023-01-12T09:09:20.217Z,99916.61
2023-01-12T09:11:48.996Z,99921.27
2023-01-12T09:14:17.289Z,99925.94
2023-01-12T09:16:44.534Z,99922.77
2023-01-12T09:19:11.992Z,99926.58
2023-01-12T09:21:41.436Z,99923.70
2023-01-12T09:24:08.983Z,99921.79
2023-01-12T09:26:38.971Z,99911.80
2023-01-12T09:29:07.942Z,99906.09
2023-01-12T09:31:37.581Z,99903.59
2023-01-12T09:34:04.804Z,99901.55
2023-01-12T09:36:35.589Z,99892.60
2023-01-12T09:39:04.425Z,99889.60
2023-01-12T09:41:54.931Z,99891.73
2023-01-12T09:44:48.997Z,99890.48
2023-01-12T09:47:22.359Z,99887.63
2023-01-12T09:50:08.658Z,99885.73
2023-01-12T09:52:43.008Z,99889.43
2023-01-12T09:55:16.706Z,99882.98
2023-01-12T09:58:04.260Z,99882.23
2023-01-12T10:00:32.530Z,99886.15
2023-01-12T10:03:16.526Z,99883.65
2023-01-12T10:05:49.000Z,99885.54
2023-01-12T10:08:21.735Z,99885.35
2023-01-12T10:11:02.168Z,99877.64
2023-01-12T10:13:48.242Z,99876.54
2023-01-12T10:16:25.862Z,99868.10
2023-01-12T10:18:59.493Z,99868.10
2023-01-12T10:21:29.103Z,99869.54
2023-01-12T10:23:57.049Z,99865.16
2023-01-12T10:26:38.308Z,99864.34
2023-01-12T10:29:05.566Z,99866.75
2023-01-12T10:31:32.739Z,99867.23
2023-01-12T10:34:07.617Z,99866.86
2023-01-12T10:36:47.255Z,99861.48
2023-01-12T10:39:35.503Z,99863.78
2023-01-12T10:42:35.037Z,99860.12
2023-01-12T10:45:14.719Z,99856.53
2023-01-12T10:47:44.030Z,99848.73
2023-01-12T10:50:32.933Z,99848.60
2023-01-12T10:53:04.068Z,99845.08
2023-01-12T10:55:35.154Z,99842.20
2023-01-12T10:58:02.395Z,99841.56
2023-01-12T11:00:30.479Z,99833.87
2023-01-12T11:02:57.835Z,99831.18
2023-01-12T11:05:38.827Z,99824.83
2023-01-12T11:08:28.832Z,99821.42
2023-01-12T11:10:56.076Z,99817.86
2023-01-12T11:13:30.601Z,99811.84
2023-01-12T11:16:28.184Z,99808.16
2023-01-12T11:19:17.077Z,99814.42
2023-01-12T11:21:51.443Z,99807.37
2023-01-12T11:24:32.033Z,99799.27
2023-01-12T11:27:06.734Z,99799.20
2023-01-12T11:29:47.230Z,99792.30
2023-01-12T11:32:40.223Z,99785.64
2023-01-12T11:35:26.607Z,99777.20
2023-01-12T11:37:58.238Z,99776.70
2023-01-12T11:40:33.630Z,99772.13
2023-01-12T11:43:29.556Z,99767.79
2023-01-12T11:46:08.813Z,99759.91
2023-01-12T11:48:47.131Z,99764.46
2023-01-12T11:51:14.867Z,99757.14
2023-01-12T11:53:42.517Z,99760.23
2023-01-12T11:56:26.883Z,99760.75
2023-01-12T11:58:57.926Z,99754.85
2023-01-12T12:01:40.384Z,99748.48
2023-01-12T12:04:35.324Z,99749.48
2023-01-12T12:07:18.875Z,99743.81
2023-01-12T12:10:22.541Z,99741.66
2023-01-12T12:12:58.795Z,99740.23
2023-01-12T12:15:41.874Z,99735.27
2023-01-12T12:18:28.324Z,99730.76
2023-01-12T12:21:33.077Z,99724.90
2023-01-12T12:24:15.875Z,99727.63
2023-01-12T12:26:58.256Z,99726.06
2023-01-12T12:29:33.029Z,99725.34
2023-01-12T12:32:09.408Z,99726.53
2023-01-12T12:34:49.467Z,99722.08
2023-01-12T12:37:32.123Z,99720.72
2023-01-12T12:40:11.324Z,99721.07
2023-01-12T12:43:35.188Z,99718.16
2023-01-12T12:46:40.813Z,99714.13
2023-01-12T12:49:27.133Z,99711.36
2023-01-12T12:51:57.503Z,99708.46
2023-01-12T12:54:26.539Z,99704.89
2023-01-12T12:56:54.908Z,99703.46
2023-01-12T12:59:31.336Z,99706.55
2023-01-12T13:02:01.197Z,99702.98
2023-01-12T13:04:43.772Z,99704.39
2023-01-12T13:07:20.707Z,99701.59
2023-01-12T13:09:49.376Z,99699.10
2023-01-12T13:12:21.818Z,99699.85
2023-01-12T13:15:18.440Z,99699.36
2023-01-12T13:17:47.351Z,99692.99
2023-01-12T13:20:24.932Z,99688.64
2023-01-12T13:22:53.353Z,99690.48
2023-01-12T13:25:20.540Z,99688.38
2023-01-12T13:28:09.547Z,99681.05
2023-01-12T13:30:49.048Z,99682.56
2023-01-12T13:33:16.280Z,99674.88
2023-01-12T13:35:47.330Z,99674.32
2023-01-12T13:38:52.402Z,99672.79
2023-01-12T13:41:53.179Z,99667.05
2023-01-12T13:44:29.880Z,99670.03
2023-01-12T13:47:10.406Z,99668.95
2023-01-12T13:49:47.259Z,99665.29
2023-01-12T13:52:35.937Z,99665.41
2023-01-12T13:55:05.260Z,99663.36
2023-01-12T13:57:32.508Z,99659.66
2023-01-12T14:00:00.679Z,99654.52
2023-01-12T14:02:33.100Z,99653.45
2023-01-12T14:05:14.335Z,99650.27
2023-01-12T14:08:13.682Z,99651.88
2023-01-12T14:10:59.983Z,99643.09
2023-01-12T14:13:54.258Z,99643.50
2023-01-12T14:16:41.781Z,99636.98
2023-01-12T14:19:28.929Z,99636.84
2023-01-12T14:21:58.561Z,99637.55
2023-01-12T14:24:26.383Z,99636.73
2023-01-12T14:26:53.531Z,99631.16
2023-01-12T14:29:20.701Z,99627.83
2023-01-12T14:31:50.609Z,99627.16
2023-01-12T14:34:29.107Z,99630.95
2023-01-12T14:36:56.772Z,99624.87
2023-01-12T14:39:27.762Z,99624.52
2023-01-12T14:42:15.419Z,99629.54
2023-01-12T14:45:14.238Z,99623.55
2023-01-12T14:47:42.128Z,99630.13
2023-01-12T14:50:22.015Z,99633.02
2023-01-12T14:52:49.574Z,99633.59
2023-01-12T14:55:25.549Z,99636.22
2023-01-12T14:57:57.550Z,99637.60
2023-01-12T15:00:28.118Z,99640.10
2023-01-12T15:02:58.027Z,99646.54
2023-01-12T15:05:30.349Z,99646.89
2023-01-12T15:07:57.624Z,99650.50
2023-01-12T15:10:37.379Z,99646.14
2023-01-12T15:13:29.759Z,99649.63
2023-01-12T15:16:16.186Z,99651.91
2023-01-12T15:19:02.265Z,99650.42
2023-01-12T15:21:48.951Z,99644.92
2023-01-12T15:24:44.234Z,99639.11
2023-01-12T15:27:16.280Z,99636.80
2023-01-12T15:29:43.709Z,99635.71
2023-01-12T15:32:48.791Z,99633.33
2023-01-12T15:35:23.765Z,99635.97
2023-01-12T15:37:54.291Z,99636.45
2023-01-12T15:40:22.425Z,99633.36
2023-01-12T15:42:53.092Z,99632.36
2023-01-12T15:45:27.383Z,99624.63
2023-01-12T15:47:54.717Z,99625.81
2023-01-12T15:50:21.873Z,99620.10
2023-01-12T15:52:51.241Z,99619.62
2023-01-12T15:55:21.279Z,99617.52
2023-01-12T15:57:48.976Z,99614.07
2023-01-12T16:00:19.667Z,99617.14
2023-01-12T16:02:50.578Z,99609.77
2023-01-12T16:05:21.531Z,99612.55
2023-01-12T16:07:49.812Z,99607.86
2023-01-12T16:10:17.890Z,99597.30
2023-01-12T16:12:46.066Z,99598.89
2023-01-12T16:15:20.569Z,99591.83
2023-01-12T16:17:48.249Z,99591.78
2023-01-12T16:20:17.140Z,99587.09
2023-01-12T16:22:45.567Z,99578.46
2023-01-12T16:25:14.101Z,99575.91
2023-01-12T16:27:41.622Z,99575.15
2023-01-12T16:30:14.032Z,99574.44
2023-01-12T16:32:47.246Z,99573.20
2023-01-12T16:35:15.839Z,99574.70
2023-01-12T16:37:44.759Z,99580.05
2023-01-12T16:40:12.799Z,99573.61
2023-01-12T16:42:39.933Z,99574.14
2023-01-12T16:45:07.386Z,99579.86
2023-01-12T16:47:34.592Z,99581.70
2023-01-12T16:50:01.856Z,99583.25
2023-01-12T16:52:29.229Z,99581.71
2023-01-12T16:54:56.362Z,99580.49
2023-01-12T16:57:23.544Z,99580.28
2023-01-12T16:59:51.281Z,99574.11
2023-01-12T17:02:18.986Z,99574.55
2023-01-12T17:04:48.642Z,99571.21
2023-01-12T17:07:16.034Z,99574.94
2023-01-12T17:09:43.726Z,99570.66
2023-01-12T17:12:11.573Z,99580.30
2023-01-12T17:14:38.984Z,99575.59
2023-01-12T17:17:08.516Z,99580.99
2023-01-12T17:19:38.358Z,99577.79
2023-01-12T17:22:08.107Z,99567.66
2023-01-12T17:24:39.738Z,99570.17
2023-01-12T17:27:09.161Z,99564.77
2023-01-12T17:29:37.101Z,99566.98
2023-01-12T17:32:06.220Z,99565.96
2023-01-12T17:34:37.057Z,99568.56
2023-01-12T17:37:08.207Z,99558.26
2023-01-12T17:39:37.235Z,99559.63
2023-01-12T17:42:23.134Z,99553.08
2023-01-12T17:44:50.759Z,99545.70
2023-01-12T17:47:17.960Z,99544.21
2023-01-12T17:49:47.827Z,99541.84
2023-01-12T17:52:15.162Z,99541.00
2023-01-12T17:54:42.922Z,99541.88
2023-01-12T17:57:10.042Z,99540.08
2023-01-12T17:59:37.422Z,99537.15
2023-01-12T18:02:04.871Z,99538.48
2023-01-12T18:04:32.419Z,99543.59
2023-01-12T18:06:59.645Z,99539.48
2023-01-12T18:09:28.187Z,99537.38
2023-01-12T18:11:55.391Z,99536.72
2023-01-12T18:14:24.604Z,99533.65
2023-01-12T18:16:51.815Z,99533.07
2023-01-12T18:19:19.057Z,99534.60
2023-01-12T18:21:46.236Z,99538.95
2023-01-12T18:24:13.441Z,99536.23
2023-01-12T18:26:40.615Z,99535.98
2023-01-12T18:29:08.000Z,99539.09
2023-01-12T18:31:39.959Z,99534.45
2023-01-12T18:34:08.977Z,99535.02
2023-01-12T18:36:40.980Z,99536.20
2023-01-12T18:39:12.572Z,99537.48
2023-01-12T18:41:58.344Z,99535.20
2023-01-12T18:44:25.692Z,99527.50
2023-01-12T18:47:11.816Z,99526.69
2023-01-12T18:49:41.965Z,99527.08
2023-01-12T18:52:30.467Z,99525.33
2023-01-12T18:54:58.994Z,99522.83
2023-01-12T18:57:28.487Z,99516.95
2023-01-12T19:00:00.555Z,99522.05
2023-01-12T19:02:28.816Z,99521.59
2023-01-12T19:05:15.880Z,99523.54
2023-01-12T19:08:09.913Z,99525.83
2023-01-12T19:10:37.038Z,99529.64
2023-01-12T19:13:22.903Z,99521.36
2023-01-12T19:16:09.082Z,99517.31
2023-01-12T19:18:40.479Z,99515.35
2023-01-12T19:21:47.458Z,99519.41
2023-01-12T19:24:33.325Z,99522.16
2023-01-12T19:27:19.607Z,99523.85
2023-01-12T19:29:47.861Z,99520.16
2023-01-12T19:32:15.177Z,99516.29
2023-01-12T19:34:42.433Z,99509.40
2023-01-12T19:37:09.659Z,99507.71
2023-01-12T19:39:40.613Z,99503.70
2023-01-12T19:42:28.177Z,99503.13
2023-01-12T19:44:56.215Z,99501.83
2023-01-12T19:47:23.399Z,99498.55
2023-01-12T19:49:50.551Z,99498.32
2023-01-12T19:52:17.751Z,99502.46
2023-01-12T19:54:44.902Z,99504.11
2023-01-12T19:57:12.130Z,99501.88
2023-01-12T19:59:39.264Z,99497.70
2023-01-12T20:02:06.746Z,99501.19
2023-01-12T20:04:34.555Z,99500.77
2023-01-12T20:07:01.759Z,99501.48
2023-01-12T20:09:28.962Z,99501.92
2023-01-12T20:11:56.186Z,99494.11
2023-01-12T20:14:23.362Z,99492.86
2023-01-12T20:16:50.474Z,99493.76
2023-01-12T20:19:20.778Z,99488.52
2023-01-12T20:21:48.584Z,99491.27
2023-01-12T20:24:16.168Z,99493.14
2023-01-12T20:26:43.375Z,99492.60
2023-01-12T20:29:10.572Z,99486.93
2023-01-12T20:31:37.991Z,99486.48
2023-01-12T20:34:05.206Z,99487.53
2023-01-12T20:36:32.380Z,99486.53
2023-01-12T20:39:01.985Z,99483.73
2023-01-12T20:41:29.249Z,99488.78
2023-01-12T20:43:56.493Z,99489.25
2023-01-12T20:46:24.046Z,99489.13
2023-01-12T20:48:51.226Z,99490.92
2023-01-12T20:51:18.361Z,99485.98
2023-01-12T20:53:45.603Z,99488.73
2023-01-12T20:56:12.884Z,99487.16
2023-01-12T20:58:40.085Z,99480.21
2023-01-12T21:01:12.144Z,99486.39
2023-01-12T21:03:40.052Z,99484.93
2023-01-12T21:06:16.617Z,99490.09
2023-01-12T21:08:45.581Z,99482.71
2023-01-12T21:11:15.881Z,99483.83
2023-01-12T21:13:43.677Z,99486.13
2023-01-12T21:16:18.194Z,99480.95
2023-01-12T21:18:46.105Z,99487.89
2023-01-12T21:21:13.404Z,99488.13
2023-01-12T21:23:40.549Z,99491.58
2023-01-12T21:26:08.378Z,99490.64
2023-01-12T21:28:38.510Z,99483.23
2023-01-12T21:31:08.618Z,99482.68
2023-01-12T21:33:35.979Z,99481.54
2023-01-12T21:36:03.737Z,99480.38
2023-01-12T21:38:31.796Z,99477.67
2023-01-12T21:41:04.017Z,99476.84
2023-01-12T21:43:32.150Z,99478.02
2023-01-12T21:46:09.369Z,99474.45
2023-01-12T21:48:37.085Z,99475.44
2023-01-12T21:51:08.774Z,99472.45
2023-01-12T21:53:36.157Z,99473.76
2023-01-12T21:56:05.599Z,99474.96
2023-01-12T21:58:35.128Z,99468.23
2023-01-12T22:01:13.564Z,99463.91
2023-01-12T22:03:41.449Z,99455.30
2023-01-12T22:06:12.947Z,99452.62
2023-01-12T22:08:41.997Z,99451.70
2023-01-12T22:11:14.345Z,99450.23
2023-01-12T22:13:42.144Z,99455.16
2023-01-12T22:16:11.868Z,99452.31
2023-01-12T22:18:39.956Z,99456.33
2023-01-12T22:21:09.706Z,99456.20
2023-01-12T22:23:37.756Z,99456.77
2023-01-12T22:26:07.303Z,99455.28
2023-01-12T22:28:35.969Z,99456.81
2023-01-12T22:31:15.151Z,99447.61
2023-01-12T22:33:58.761Z,99447.66
2023-01-12T22:36:25.938Z,99455.20
2023-01-12T22:38:53.166Z,99458.00
2023-01-12T22:41:22.446Z,99463.65
2023-01-12T22:43:49.740Z,99462.46
2023-01-12T22:46:25.721Z,99456.88
2023-01-12T22:48:55.421Z,99460.06
2023-01-12T22:51:26.762Z,99458.48
2023-01-12T22:53:55.841Z,99458.40
2023-01-12T22:56:23.604Z,99454.43
2023-01-12T22:58:54.325Z,99454.89
2023-01-12T23:01:23.161Z,99449.58
2023-01-12T23:03:54.610Z,99449.66
2023-01-12T23:06:22.660Z,99451.07
2023-01-12T23:08:50.323Z,99450.80
2023-01-12T23:11:26.235Z,99450.77
2023-01-12T23:13:57.131Z,99451.65
2023-01-12T23:16:25.723Z,99451.45
2023-01-12T23:18:55.581Z,99457.76
2023-01-12T23:21:26.700Z,99456.16
2023-01-12T23:23:56.663Z,99453.52
2023-01-12T23:26:26.581Z,99453.34
2023-01-12T23:28:56.418Z,99460.69
2023-01-12T23:31:27.447Z,99460.95
2023-01-12T23:33:55.247Z,99461.51
2023-01-12T23:36:25.037Z,99461.83
2023-01-12T23:39:01.243Z,99461.00
2023-01-12T23:41:30.821Z,99459.98
2023-01-12T23:44:00.697Z,99457.48
2023-01-12T23:46:30.588Z,99454.69
2023-01-12T23:48:58.359Z,99443.72
2023-01-12T23:51:27.223Z,99443.95
2023-01-12T23:54:01.613Z,99442.14
2023-01-12T23:56:32.801Z,99440.60
2023-01-12T23:59:00.136Z,99438.77
